createdAt,value
2022-08-28T00:00:13.021Z,98972.66
2022-08-28T00:02:41.042Z,98979.13
2022-08-28T00:05:10.883Z,98976.59
2022-08-28T00:07:42.295Z,98973.47
2022-08-28T00:10:12.991Z,98984.91
2022-08-28T00:12:40.482Z,98973.88
2022-08-28T00:15:11.949Z,98980.53
2022-08-28T00:17:41.101Z,98977.44
2022-08-28T00:20:11.309Z,98974.31
2022-08-28T00:22:41.336Z,98975.13
2022-08-28T00:25:10.454Z,98980.56
2022-08-28T00:27:38.313Z,98967.84
2022-08-28T00:30:06.494Z,98965.94
2022-08-28T00:32:33.930Z,98968.03
2022-08-28T00:35:01.739Z,98974.69
2022-08-28T00:37:29.406Z,98965.34
2022-08-28T00:39:58.324Z,98971.38
2022-08-28T00:42:25.806Z,98959.91
2022-08-28T00:44:53.259Z,98957.00
2022-08-28T00:47:20.754Z,98967.41
2022-08-28T00:49:53.191Z,98964.06
2022-08-28T00:52:22.803Z,98968.03
2022-08-28T00:54:58.547Z,98966.56
2022-08-28T00:57:34.326Z,98964.09
2022-08-28T01:00:02.424Z,98970.34
2022-08-28T01:02:30.022Z,98967.63
2022-08-28T01:04:57.561Z,98969.72
2022-08-28T01:07:25.264Z,98968.47
2022-08-28T01:09:54.903Z,98961.56
2022-08-28T01:12:23.155Z,98970.69
2022-08-28T01:14:55.115Z,98963.09
2022-08-28T01:17:24.986Z,98965.41
2022-08-28T01:19:55.309Z,98962.72
2022-08-28T01:22:29.234Z,98971.09
2022-08-28T01:25:02.311Z,98969.84
2022-08-28T01:27:29.837Z,98972.38
2022-08-28T01:29:57.381Z,98976.50
2022-08-28T01:32:31.016Z,98975.16
2022-08-28T01:34:58.622Z,98970.41
2022-08-28T01:37:26.123Z,98963.38
2022-08-28T01:39:53.600Z,98974.00
2022-08-28T01:42:22.476Z,98974.31
2022-08-28T01:44:49.904Z,98968.78
2022-08-28T01:47:17.343Z,98971.63
2022-08-28T01:49:44.769Z,98968.84
2022-08-28T01:52:12.205Z,98973.38
2022-08-28T01:54:39.725Z,98967.06
2022-08-28T01:57:08.322Z,98966.69
2022-08-28T01:59:37.181Z,98968.41
2022-08-28T02:02:05.425Z,98967.28
2022-08-28T02:04:32.985Z,98969.38
2022-08-28T02:07:00.455Z,98962.47
2022-08-28T02:09:27.953Z,98972.19
2022-08-28T02:11:55.348Z,98965.72
2022-08-28T02:14:22.782Z,98966.03
2022-08-28T02:16:51.762Z,98962.59
2022-08-28T02:19:19.457Z,98968.59
2022-08-28T02:21:47.754Z,98964.84
2022-08-28T02:24:15.183Z,98960.25
2022-08-28T02:26:42.813Z,98964.78
2022-08-28T02:29:10.235Z,98964.34
2022-08-28T02:31:37.762Z,98963.34
2022-08-28T02:34:07.199Z,98953.88
2022-08-28T02:36:34.626Z,98955.00
2022-08-28T02:39:02.055Z,98959.06
2022-08-28T02:41:29.458Z,98962.34
2022-08-28T02:43:56.894Z,98957.50
2022-08-28T02:46:24.352Z,98958.16
2022-08-28T02:48:51.803Z,98960.03
2022-08-28T02:51:20.630Z,98959.59
2022-08-28T02:53:48.403Z,98959.50
2022-08-28T02:56:15.797Z,98957.97
2022-08-28T02:58:43.424Z,98956.25
2022-08-28T03:01:12.903Z,98966.13
2022-08-28T03:03:41.395Z,98957.63
2022-08-28T03:06:10.328Z,98958.22
2022-08-28T03:08:39.605Z,98955.28
2022-08-28T03:11:07.076Z,98955.06
2022-08-28T03:13:34.529Z,98962.09
2022-08-28T03:16:02.351Z,98957.94
2022-08-28T03:18:29.789Z,98962.09
2022-08-28T03:20:57.311Z,98957.44
2022-08-28T03:23:24.776Z,98961.72
2022-08-28T03:25:54.483Z,98962.53
2022-08-28T03:28:22.022Z,98966.31
2022-08-28T03:30:49.499Z,98960.41
2022-08-28T03:33:17.031Z,98958.78
2022-08-28T03:35:44.429Z,98962.75
2022-08-28T03:38:12.210Z,98964.81
2022-08-28T03:40:41.572Z,98962.75
2022-08-28T03:43:12.696Z,98966.69
2022-08-28T03:45:41.138Z,98966.69
2022-08-28T03:48:08.746Z,98960.47
2022-08-28T03:50:36.787Z,98960.50
2022-08-28T03:53:04.361Z,98956.53
2022-08-28T03:55:31.831Z,98947.41
2022-08-28T03:58:01.625Z,98949.56
2022-08-28T04:00:30.493Z,98950.09
2022-08-28T04:02:57.956Z,98950.69
2022-08-28T04:05:25.381Z,98955.00
2022-08-28T04:07:52.804Z,98960.50
2022-08-28T04:10:20.257Z,98952.03
2022-08-28T04:12:47.806Z,98955.97
2022-08-28T04:15:15.253Z,98951.91
2022-08-28T04:17:44.218Z,98961.38
2022-08-28T04:20:11.921Z,98955.97
2022-08-28T04:22:39.620Z,98957.78
2022-08-28T04:25:08.330Z,98963.81
2022-08-28T04:27:35.971Z,98963.25
2022-08-28T04:30:04.390Z,98961.69
2022-08-28T04:32:34.779Z,98960.59
2022-08-28T04:35:05.375Z,98962.00
2022-08-28T04:37:33.322Z,98954.81
2022-08-28T04:40:00.797Z,98959.25
2022-08-28T04:42:28.249Z,98960.69
2022-08-28T04:44:56.446Z,98957.16
2022-08-28T04:47:23.913Z,98965.38
2022-08-28T04:49:51.354Z,98957.91
2022-08-28T04:52:20.264Z,98964.72
2022-08-28T04:54:47.675Z,98957.63
2022-08-28T04:57:15.114Z,98958.81
2022-08-28T04:59:42.522Z,98960.13
2022-08-28T05:02:10.037Z,98960.28
2022-08-28T05:04:37.517Z,98959.56
2022-08-28T05:07:05.085Z,98965.38
2022-08-28T05:09:34.375Z,98962.03
2022-08-28T05:12:03.261Z,98953.72
2022-08-28T05:14:31.432Z,98951.84
2022-08-28T05:16:59.177Z,98959.63
2022-08-28T05:19:27.690Z,98953.34
2022-08-28T05:21:55.607Z,98956.28
2022-08-28T05:24:23.017Z,98954.69
2022-08-28T05:26:51.960Z,98962.16
2022-08-28T05:29:19.356Z,98953.66
2022-08-28T05:31:46.911Z,98960.47
2022-08-28T05:34:14.590Z,98961.81
2022-08-28T05:36:42.216Z,98954.22
2022-08-28T05:39:11.581Z,98962.91
2022-08-28T05:41:41.173Z,98956.13
2022-08-28T05:44:12.423Z,98952.59
2022-08-28T05:46:42.369Z,98951.63
2022-08-28T05:49:10.546Z,98953.97
2022-08-28T05:51:40.590Z,98955.22
2022-08-28T05:54:08.824Z,98955.25
2022-08-28T05:56:38.655Z,98948.41
2022-08-28T05:59:07.406Z,98950.56
2022-08-28T06:01:38.555Z,98948.16
2022-08-28T06:04:08.689Z,98947.53
2022-08-28T06:06:37.632Z,98933.38
2022-08-28T06:09:07.679Z,98944.22
2022-08-28T06:11:35.536Z,98940.22
2022-08-28T06:14:04.009Z,98935.28
2022-08-28T06:16:32.610Z,98935.88
2022-08-28T06:19:01.518Z,98940.09
2022-08-28T06:21:29.237Z,98938.78
2022-08-28T06:23:56.768Z,98939.91
2022-08-28T06:26:24.236Z,98931.81
2022-08-28T06:28:51.981Z,98935.22
2022-08-28T06:31:25.086Z,98940.09
2022-08-28T06:33:54.321Z,98926.47
2022-08-28T06:36:23.361Z,98930.06
2022-08-28T06:38:50.808Z,98923.50
2022-08-28T06:41:18.445Z,98926.97
2022-08-28T06:43:45.848Z,98939.19
2022-08-28T06:46:13.426Z,98932.09
2022-08-28T06:48:40.869Z,98921.47
2022-08-28T06:51:10.108Z,98915.84
2022-08-28T06:53:41.320Z,98922.91
2022-08-28T06:56:10.814Z,98931.41
2022-08-28T06:58:43.478Z,98929.94
2022-08-28T07:01:22.024Z,98933.66
2022-08-28T07:03:50.461Z,98925.72
2022-08-28T07:06:18.476Z,98918.78
2022-08-28T07:08:48.140Z,98921.69
2022-08-28T07:11:16.225Z,98923.28
2022-08-28T07:13:45.298Z,98922.34
2022-08-28T07:16:14.540Z,98918.81
2022-08-28T07:18:42.261Z,98922.16
2022-08-28T07:21:12.467Z,98922.47
2022-08-28T07:23:41.880Z,98910.91
2022-08-28T07:26:12.767Z,98913.97
2022-08-28T07:28:40.851Z,98910.97
2022-08-28T07:31:10.254Z,98907.16
2022-08-28T07:33:38.350Z,98910.72
2022-08-28T07:36:06.993Z,98910.59
2022-08-28T07:38:34.833Z,98903.63
2022-08-28T07:41:02.269Z,98900.19
2022-08-28T07:43:31.121Z,98894.50
2022-08-28T07:45:59.735Z,98897.47
2022-08-28T07:48:27.492Z,98896.59
2022-08-28T07:50:55.110Z,98892.69
2022-08-28T07:53:22.750Z,98890.78
2022-08-28T07:55:51.194Z,98891.78
2022-08-28T07:58:18.927Z,98887.50
2022-08-28T08:00:48.215Z,98888.78
2022-08-28T08:03:15.660Z,98883.19
2022-08-28T08:05:53.242Z,98891.66
2022-08-28T08:08:21.068Z,98889.53
2022-08-28T08:10:57.519Z,98883.84
2022-08-28T08:13:25.043Z,98880.94
2022-08-28T08:15:53.963Z,98877.16
2022-08-28T08:18:21.432Z,98886.34
2022-08-28T08:20:51.620Z,98885.50
2022-08-28T08:23:19.041Z,98887.59
2022-08-28T08:25:54.988Z,98882.34
2022-08-28T08:28:22.901Z,98881.50
2022-08-28T08:30:50.479Z,98878.00
2022-08-28T08:33:19.352Z,98876.75
2022-08-28T08:35:46.775Z,98877.16
2022-08-28T08:38:14.336Z,98871.38
2022-08-28T08:40:42.030Z,98876.38
2022-08-28T08:43:10.156Z,98873.00
2022-08-28T08:45:40.394Z,98871.78
2022-08-28T08:48:26.708Z,98874.25
2022-08-28T08:50:55.378Z,98875.94
2022-08-28T08:53:31.068Z,98873.84
2022-08-28T08:55:58.625Z,98865.09
2022-08-28T08:58:30.213Z,98873.41
2022-08-28T09:01:03.756Z,98866.72
2022-08-28T09:03:49.569Z,98870.03
2022-08-28T09:06:29.545Z,98857.94
2022-08-28T09:09:00.686Z,98858.19
2022-08-28T09:11:43.889Z,98861.28
2022-08-28T09:14:19.585Z,98862.53
2022-08-28T09:16:48.331Z,98858.97
2022-08-28T09:19:20.192Z,98853.38
2022-08-28T09:21:48.696Z,98859.03
2022-08-28T09:24:22.288Z,98860.94
2022-08-28T09:26:59.247Z,98853.81
2022-08-28T09:29:30.288Z,98853.16
2022-08-28T09:31:58.427Z,98847.13
2022-08-28T09:34:33.382Z,98852.13
2022-08-28T09:37:03.329Z,98840.59
2022-08-28T09:39:32.071Z,98842.16
2022-08-28T09:42:04.351Z,98846.53
2022-08-28T09:44:31.876Z,98848.19
2022-08-28T09:46:59.453Z,98842.16
2022-08-28T09:49:30.382Z,98845.50
2022-08-28T09:51:59.004Z,98837.34
2022-08-28T09:54:32.975Z,98837.44
2022-08-28T09:57:01.381Z,98846.09
2022-08-28T09:59:29.926Z,98841.09
2022-08-28T10:02:13.437Z,98838.22
2022-08-28T10:04:58.029Z,98830.81
2022-08-28T10:07:36.717Z,98832.31
2022-08-28T10:10:18.021Z,98830.06
2022-08-28T10:12:57.613Z,98823.16
2022-08-28T10:15:29.560Z,98820.03
2022-08-28T10:18:25.544Z,98820.69
2022-08-28T10:21:04.068Z,98825.28
2022-08-28T10:23:40.233Z,98828.19
2022-08-28T10:26:29.198Z,98815.69
2022-08-28T10:29:06.805Z,98818.34
2022-08-28T10:31:42.975Z,98803.78
2022-08-28T10:34:27.410Z,98807.13
2022-08-28T10:37:04.919Z,98807.97
2022-08-28T10:39:45.843Z,98799.78
2022-08-28T10:42:18.500Z,98807.09
2022-08-28T10:44:52.623Z,98795.50
2022-08-28T10:47:21.702Z,98798.97
2022-08-28T10:49:53.435Z,98804.38
2022-08-28T10:52:28.457Z,98807.72
2022-08-28T10:55:03.193Z,98814.16
2022-08-28T10:57:39.546Z,98796.50
2022-08-28T11:00:10.573Z,98800.66
2022-08-28T11:02:41.158Z,98797.91
2022-08-28T11:05:09.398Z,98800.34
2022-08-28T11:07:42.386Z,98786.03
2022-08-28T11:10:20.185Z,98797.13
2022-08-28T11:12:49.615Z,98797.81
2022-08-28T11:15:46.360Z,98799.22
2022-08-28T11:18:48.766Z,98796.69
2022-08-28T11:21:23.878Z,98797.94
2022-08-28T11:24:00.230Z,98795.22
2022-08-28T11:26:34.163Z,98791.88
2022-08-28T11:29:02.144Z,98793.69
2022-08-28T11:31:39.111Z,98792.19
2022-08-28T11:34:08.454Z,98782.41
2022-08-28T11:37:02.306Z,98793.56
2022-08-28T11:39:31.748Z,98786.88
2022-08-28T11:42:35.454Z,98786.00
2022-08-28T11:45:03.627Z,98773.94
2022-08-28T11:47:45.455Z,98769.19
2022-08-28T11:50:20.606Z,98776.84
2022-08-28T11:53:14.746Z,98778.31
2022-08-28T11:56:00.445Z,98776.25
2022-08-28T11:58:38.213Z,98776.44
2022-08-28T12:01:09.250Z,98777.06
2022-08-28T12:03:40.430Z,98773.31
2022-08-28T12:06:08.014Z,98765.81
2022-08-28T12:09:08.993Z,98767.59
2022-08-28T12:12:02.047Z,98757.19
2022-08-28T12:15:01.477Z,98757.66
2022-08-28T12:17:46.368Z,98759.25
2022-08-28T12:20:23.263Z,98754.09
2022-08-28T12:22:54.193Z,98746.53
2022-08-28T12:25:33.948Z,98739.53
2022-08-28T12:28:13.012Z,98746.09
2022-08-28T12:30:56.541Z,98747.31
2022-08-28T12:33:31.739Z,98742.84
2022-08-28T12:36:02.778Z,98746.06
2022-08-28T12:38:32.537Z,98747.25
2022-08-28T12:41:00.102Z,98749.41
2022-08-28T12:43:38.514Z,98737.41
2022-08-28T12:46:19.304Z,98736.06
2022-08-28T12:48:52.000Z,98735.47
2022-08-28T12:51:22.026Z,98729.25
2022-08-28T12:53:52.482Z,98728.13
2022-08-28T12:56:22.402Z,98730.56
2022-08-28T12:58:51.567Z,98731.84
2022-08-28T13:01:26.873Z,98734.81
2022-08-28T13:03:57.401Z,98723.34
2022-08-28T13:06:29.000Z,98723.59
2022-08-28T13:09:03.407Z,98726.94
2022-08-28T13:11:34.736Z,98727.91
2022-08-28T13:14:04.970Z,98718.88
2022-08-28T13:16:39.657Z,98721.44
2022-08-28T13:19:13.100Z,98725.38
2022-08-28T13:21:51.645Z,98715.25
2022-08-28T13:24:37.658Z,98716.88
2022-08-28T13:27:09.131Z,98712.59
2022-08-28T13:29:48.577Z,98716.91
2022-08-28T13:32:18.773Z,98720.16
2022-08-28T13:35:28.182Z,98720.59
2022-08-28T13:37:57.208Z,98712.84
2022-08-28T13:43:16.165Z,98708.00
2022-08-28T13:45:47.072Z,98712.94
2022-08-28T13:48:16.596Z,98714.94
2022-08-28T13:50:47.216Z,98713.00
2022-08-28T13:53:16.143Z,98704.53
2022-08-28T13:55:43.574Z,98706.13
2022-08-28T13:58:10.977Z,98707.56
2022-08-28T14:00:43.484Z,98701.41
2022-08-28T14:03:12.892Z,98700.22
2022-08-28T14:05:40.426Z,98696.78
2022-08-28T14:08:07.838Z,98700.22
2022-08-28T14:10:35.340Z,98691.28
2022-08-28T14:13:02.762Z,98698.75
2022-08-28T14:15:30.197Z,98695.72
2022-08-28T14:17:57.632Z,98700.06
2022-08-28T14:20:26.514Z,98691.28
2022-08-28T14:22:53.916Z,98698.38
2022-08-28T14:25:21.357Z,98681.09
2022-08-28T14:27:48.787Z,98688.88
2022-08-28T14:30:16.838Z,98686.38
2022-08-28T14:32:44.254Z,98688.78
2022-08-28T14:35:11.858Z,98681.31
2022-08-28T14:37:40.701Z,98685.88
2022-08-28T14:40:09.285Z,98692.81
2022-08-28T14:42:36.794Z,98688.31
2022-08-28T14:45:04.971Z,98687.31
2022-08-28T14:47:32.377Z,98691.28
2022-08-28T14:50:00.472Z,98691.31
2022-08-28T14:52:28.038Z,98688.19
2022-08-28T14:54:56.942Z,98693.66
2022-08-28T14:57:24.382Z,98693.03
2022-08-28T14:59:51.807Z,98688.25
2022-08-28T15:02:19.249Z,98686.13
2022-08-28T15:04:46.666Z,98689.72
2022-08-28T15:07:14.102Z,98685.09
2022-08-28T15:09:43.079Z,98683.44
2022-08-28T15:12:12.081Z,98686.16
2022-08-28T15:14:39.654Z,98685.34
2022-08-28T15:17:07.979Z,98682.00
2022-08-28T15:19:35.524Z,98683.47
2022-08-28T15:22:02.972Z,98684.69
2022-08-28T15:24:32.040Z,98676.19
2022-08-28T15:26:59.715Z,98682.00
2022-08-28T15:29:29.547Z,98678.63
2022-08-28T15:31:58.084Z,98683.47
2022-08-28T15:34:27.260Z,98681.81
2022-08-28T15:36:56.443Z,98683.28
2022-08-28T15:39:24.057Z,98689.09
2022-08-28T15:41:51.730Z,98683.69
2022-08-28T15:44:19.183Z,98686.41
2022-08-28T15:46:53.861Z,98686.63
2022-08-28T15:49:23.888Z,98687.28
2022-08-28T15:51:52.335Z,98675.19
2022-08-28T15:54:19.869Z,98685.81
2022-08-28T15:56:50.739Z,98684.38
2022-08-28T15:59:21.703Z,98693.75
2022-08-28T16:01:54.246Z,98695.84
2022-08-28T16:04:21.744Z,98702.50
2022-08-28T16:06:49.162Z,98700.81
2022-08-28T16:09:27.927Z,98702.06
2022-08-28T16:11:55.343Z,98702.47
2022-08-28T16:14:22.765Z,98694.97
2022-08-28T16:16:50.951Z,98698.31
2022-08-28T16:19:19.932Z,98689.38
2022-08-28T16:21:47.395Z,98694.16
2022-08-28T16:24:14.819Z,98699.56
2022-08-28T16:26:42.251Z,98701.88
2022-08-28T16:29:09.714Z,98696.66
2022-08-28T16:31:37.171Z,98695.00
2022-08-28T16:34:05.230Z,98693.53
2022-08-28T16:36:34.229Z,98696.06
2022-08-28T16:39:04.071Z,98699.81
2022-08-28T16:41:32.186Z,98690.22
2022-08-28T16:43:59.975Z,98691.88
2022-08-28T16:46:27.931Z,98695.84
2022-08-28T16:48:55.653Z,98683.97
2022-08-28T16:51:23.536Z,98682.09
2022-08-28T16:53:52.510Z,98684.38
2022-08-28T16:56:20.258Z,98676.47
2022-08-28T16:58:47.676Z,98685.84
2022-08-28T17:01:21.246Z,98679.19
2022-08-28T17:03:52.486Z,98680.88
2022-08-28T17:06:23.149Z,98673.13
2022-08-28T17:08:56.485Z,98679.59
2022-08-28T17:11:25.395Z,98678.78
2022-08-28T17:13:52.927Z,98678.13
2022-08-28T17:16:21.701Z,98673.59
2022-08-28T17:18:52.406Z,98670.03
2022-08-28T17:21:20.786Z,98685.66
2022-08-28T17:23:48.792Z,98677.28
2022-08-28T17:26:18.347Z,98684.19
2022-08-28T17:28:45.403Z,98680.03
2022-08-28T17:31:13.763Z,98678.97
2022-08-28T17:33:42.953Z,98675.03
2022-08-28T17:36:28.927Z,98678.97
2022-08-28T17:39:00.862Z,98680.00
2022-08-28T17:41:29.863Z,98679.19
2022-08-28T17:43:57.323Z,98674.19
2022-08-28T17:46:24.889Z,98677.72
2022-08-28T17:48:56.104Z,98670.03
2022-08-28T17:51:33.150Z,98677.94
2022-08-28T17:54:10.827Z,98672.50
2022-08-28T17:56:39.755Z,98678.78
2022-08-28T17:59:07.238Z,98677.50
2022-08-28T18:01:34.783Z,98675.41
2022-08-28T18:04:02.449Z,98682.50
2022-08-28T18:06:29.968Z,98682.06
2022-08-28T18:08:57.401Z,98680.03
2022-08-28T18:11:24.893Z,98690.41
2022-08-28T18:13:53.770Z,98682.09
2022-08-28T18:16:21.286Z,98693.97
2022-08-28T18:18:48.902Z,98688.94
2022-08-28T18:21:16.322Z,98680.81
2022-08-28T18:23:43.774Z,98687.13
2022-08-28T18:26:11.309Z,98684.38
2022-08-28T18:28:38.822Z,98683.75
2022-08-28T18:31:08.129Z,98695.44
2022-08-28T18:33:36.206Z,98694.59
2022-08-28T18:36:06.350Z,98696.06
2022-08-28T18:38:33.957Z,98688.56
2022-08-28T18:41:01.899Z,98689.19
2022-08-28T18:43:29.403Z,98686.66
2022-08-28T18:45:56.941Z,98694.59
2022-08-28T18:48:26.085Z,98687.72
2022-08-28T18:50:54.595Z,98680.63
2022-08-28T18:53:23.667Z,98681.50
2022-08-28T18:55:52.807Z,98681.06
2022-08-28T18:58:21.632Z,98682.72
2022-08-28T19:00:49.392Z,98686.88
2022-08-28T19:03:16.821Z,98688.78
2022-08-28T19:05:45.686Z,98685.44
2022-08-28T19:08:13.508Z,98677.50
2022-08-28T19:10:41.558Z,98682.09
2022-08-28T19:13:09.025Z,98675.63
2022-08-28T19:15:36.949Z,98675.44
2022-08-28T19:18:05.288Z,98678.34
2022-08-28T19:20:33.740Z,98673.78
2022-08-28T19:23:02.656Z,98672.53
2022-08-28T19:25:30.295Z,98673.97
2022-08-28T19:27:59.125Z,98669.16
2022-08-28T19:30:29.401Z,98667.91
2022-08-28T19:32:57.116Z,98675.84
2022-08-28T19:35:25.167Z,98670.00
2022-08-28T19:37:53.022Z,98663.53
2022-08-28T19:40:22.870Z,98662.31
2022-08-28T19:42:50.722Z,98662.94
2022-08-28T19:45:18.663Z,98655.44
2022-08-28T19:47:46.169Z,98666.50
2022-08-28T19:50:14.637Z,98657.09
2022-08-28T19:52:42.902Z,98652.09
2022-08-28T19:55:14.626Z,98652.50
2022-08-28T19:57:43.891Z,98655.66
2022-08-28T20:00:12.445Z,98650.22
2022-08-28T20:02:39.927Z,98642.53
2022-08-28T20:05:08.948Z,98648.56
2022-08-28T20:07:36.397Z,98642.53
2022-08-28T20:10:04.741Z,98637.75
2022-08-28T20:12:32.197Z,98646.69
2022-08-28T20:15:03.508Z,98640.88
2022-08-28T20:17:31.347Z,98638.16
2022-08-28T20:20:02.418Z,98641.69
2022-08-28T20:22:30.665Z,98633.78
2022-08-28T20:24:58.105Z,98638.34
2022-08-28T20:27:25.544Z,98640.63
2022-08-28T20:29:52.999Z,98637.31
2022-08-28T20:32:21.912Z,98632.53
2022-08-28T20:34:49.329Z,98638.13
2022-08-28T20:37:16.754Z,98633.75
2022-08-28T20:39:44.160Z,98636.28
2022-08-28T20:42:11.852Z,98632.09
2022-08-28T20:44:39.238Z,98632.09
2022-08-28T20:47:07.095Z,98642.53
2022-08-28T20:49:39.449Z,98642.50
2022-08-28T20:52:07.039Z,98639.59
2022-08-28T20:54:36.994Z,98636.03
2022-08-28T20:57:07.559Z,98632.09
2022-08-28T20:59:40.185Z,98633.97
2022-08-28T21:02:10.439Z,98633.13
2022-08-28T21:04:40.902Z,98634.59
2022-08-28T21:07:08.562Z,98633.97
2022-08-28T21:10:03.829Z,98633.56
2022-08-28T21:12:23.873Z,98625.66
2022-08-28T21:14:52.327Z,98622.31
2022-08-28T21:17:28.950Z,98621.28
2022-08-28T21:20:00.893Z,98612.97
2022-08-28T21:22:29.587Z,98614.81
2022-08-28T21:24:57.077Z,98618.38
2022-08-28T21:27:25.089Z,98619.38
2022-08-28T21:29:55.529Z,98612.66
2022-08-28T21:32:22.991Z,98613.69
2022-08-28T21:34:50.546Z,98614.97
2022-08-28T21:37:19.650Z,98621.13
2022-08-28T21:39:47.105Z,98611.13
2022-08-28T21:42:14.549Z,98617.59
2022-08-28T21:44:43.320Z,98611.53
2022-08-28T21:47:19.333Z,98609.69
2022-08-28T21:49:48.124Z,98606.13
2022-08-28T21:52:15.567Z,98598.00
2022-08-28T21:54:44.427Z,98609.25
2022-08-28T21:57:11.937Z,98605.28
2022-08-28T21:59:39.493Z,98605.91
2022-08-28T22:02:07.448Z,98611.09
2022-08-28T22:04:35.414Z,98604.88
2022-08-28T22:07:02.914Z,98611.13
2022-08-28T22:09:30.363Z,98608.13
2022-08-28T22:11:59.240Z,98614.00
2022-08-28T22:14:26.753Z,98607.09
2022-08-28T22:16:54.318Z,98605.91
2022-08-28T22:19:21.821Z,98605.22
2022-08-28T22:21:49.240Z,98607.38
2022-08-28T22:24:16.802Z,98606.72
2022-08-28T22:26:44.473Z,98615.06
2022-08-28T22:29:13.549Z,98610.84
2022-08-28T22:31:41.410Z,98612.16
2022-08-28T22:34:13.822Z,98611.75
2022-08-28T22:36:41.339Z,98615.66
2022-08-28T22:39:08.756Z,98608.63
2022-08-28T22:41:36.262Z,98608.78
2022-08-28T22:44:04.603Z,98614.44
2022-08-28T22:46:33.477Z,98617.78
2022-08-28T22:49:00.918Z,98612.56
2022-08-28T22:51:28.400Z,98606.47
2022-08-28T22:53:56.169Z,98606.47
2022-08-28T22:56:23.580Z,98596.72
2022-08-28T22:58:51.056Z,98605.63
2022-08-28T23:01:22.548Z,98605.47
2022-08-28T23:03:52.198Z,98601.94
2022-08-28T23:06:19.835Z,98591.91
2022-08-28T23:08:47.815Z,98593.81
2022-08-28T23:11:15.262Z,98599.25
2022-08-28T23:13:42.724Z,98604.41
2022-08-28T23:16:10.404Z,98593.81
2022-08-28T23:19:06.445Z,98597.34
2022-08-28T23:21:27.022Z,98592.75
2022-08-28T23:23:55.125Z,98594.63
2022-08-28T23:26:23.416Z,98595.25
2022-08-28T23:28:51.349Z,98591.91
2022-08-28T23:31:19.234Z,98595.03
2022-08-28T23:33:46.885Z,98593.72
2022-08-28T23:36:15.452Z,98594.63
2022-08-28T23:38:46.269Z,98594.63
2022-08-28T23:41:13.697Z,98597.75
2022-08-28T23:43:41.149Z,98592.31
2022-08-28T23:46:09.889Z,98592.31
2022-08-28T23:48:41.036Z,98590.00
2022-08-28T23:51:09.270Z,98592.94
2022-08-28T23:53:37.376Z,98594.38
2022-08-28T23:56:06.551Z,98591.88
2022-08-28T23:58:35.788Z,98591.28
